createdAt,value
2019-03-05T00:00:13.189Z,11.28
2019-03-05T00:02:42.518Z,11.90
2019-03-05T00:05:12.084Z,15.73
2019-03-05T00:07:41.438Z,13.00
2019-03-05T00:10:16.801Z,9.03
2019-03-05T00:12:46.130Z,13.70
2019-03-05T00:15:17.963Z,12.80
2019-03-05T00:17:47.299Z,17.93
2019-03-05T00:20:16.622Z,14.63
2019-03-05T00:22:45.982Z,11.03
2019-03-05T00:25:26.909Z,11.73
2019-03-05T00:28:14.353Z,8.50
2019-03-05T00:30:46.921Z,12.30
2019-03-05T00:33:27.965Z,14.23
2019-03-05T00:36:06.353Z,10.63
2019-03-05T00:39:11.569Z,11.97
2019-03-05T00:41:53.011Z,11.97
2019-03-05T00:44:34.329Z,13.10
2019-03-05T00:47:23.119Z,16.73
2019-03-05T00:50:04.465Z,9.03
2019-03-05T00:53:08.299Z,13.60
2019-03-05T00:55:55.641Z,14.40
2019-03-05T00:58:30.823Z,16.37
2019-03-05T01:01:06.130Z,15.67
2019-03-05T01:03:59.317Z,13.83
2019-03-05T01:06:28.696Z,15.57
2019-03-05T01:08:58.558Z,18.80
2019-03-05T01:11:28.058Z,12.90
2019-03-05T01:13:57.414Z,10.50
2019-03-05T01:16:28.395Z,14.70
2019-03-05T01:18:57.732Z,14.07
2019-03-05T01:21:27.040Z,19.40
2019-03-05T01:23:56.409Z,16.47
2019-03-05T01:26:25.732Z,13.97
2019-03-05T01:28:55.086Z,15.83
2019-03-05T01:31:42.553Z,13.00
2019-03-05T01:34:22.210Z,18.33
2019-03-05T01:36:58.933Z,15.30
2019-03-05T01:39:35.697Z,9.90
2019-03-05T01:42:06.267Z,15.87
2019-03-05T01:44:35.593Z,16.10
2019-03-05T01:47:05.235Z,18.10
2019-03-05T01:49:34.601Z,14.83
2019-03-05T01:52:03.939Z,16.77
2019-03-05T01:54:33.275Z,15.43
2019-03-05T01:57:02.594Z,14.40
2019-03-05T01:59:31.925Z,15.63
2019-03-05T02:02:01.273Z,15.87
2019-03-05T02:04:30.593Z,15.67
2019-03-05T02:06:59.929Z,12.10
2019-03-05T02:09:29.354Z,14.87
2019-03-05T02:11:58.677Z,14.90
2019-03-05T02:14:28.001Z,14.47
2019-03-05T02:16:57.364Z,10.80
2019-03-05T02:19:37.935Z,15.20
2019-03-05T02:22:22.164Z,9.13
2019-03-05T02:25:00.362Z,12.93
2019-03-05T02:27:41.713Z,13.93
2019-03-05T02:30:19.965Z,11.83
2019-03-05T02:33:22.796Z,12.97
2019-03-05T02:36:00.643Z,15.27
2019-03-05T02:38:49.278Z,10.27
2019-03-05T02:41:27.235Z,11.13
2019-03-05T02:43:59.680Z,12.43
2019-03-05T02:46:46.768Z,15.77
2019-03-05T02:49:43.217Z,23.33
2019-03-05T02:52:15.603Z,11.77
2019-03-05T02:54:56.618Z,11.40
2019-03-05T02:57:24.870Z,10.17
2019-03-05T02:59:54.195Z,8.23
2019-03-05T03:02:36.886Z,10.60
2019-03-05T03:05:08.681Z,13.37
2019-03-05T03:07:38.019Z,11.37
2019-03-05T03:10:16.146Z,11.03
2019-03-05T03:12:45.537Z,12.10
2019-03-05T03:15:15.204Z,11.33
2019-03-05T03:17:44.871Z,10.87
2019-03-05T03:20:15.587Z,10.97
2019-03-05T03:22:46.516Z,8.97
2019-03-05T03:25:17.274Z,6.53
2019-03-05T03:27:46.589Z,10.60
2019-03-05T03:30:17.871Z,8.93
2019-03-05T03:32:47.261Z,12.07
2019-03-05T03:35:16.635Z,10.40
2019-03-05T03:37:45.964Z,11.27
2019-03-05T03:40:17.848Z,11.33
2019-03-05T03:42:47.350Z,10.67
2019-03-05T03:45:18.610Z,15.53
2019-03-05T03:47:47.970Z,8.93
2019-03-05T03:50:17.294Z,11.57
2019-03-05T03:52:46.634Z,13.70
2019-03-05T03:55:16.190Z,10.30
2019-03-05T03:57:45.627Z,12.30
2019-03-05T04:00:19.624Z,13.10
2019-03-05T04:02:49.129Z,13.10
2019-03-05T04:05:18.529Z,11.10
2019-03-05T04:07:47.865Z,11.57
2019-03-05T04:10:17.471Z,11.67
2019-03-05T04:12:46.811Z,11.77
2019-03-05T04:15:17.885Z,13.80
2019-03-05T04:17:47.351Z,10.97
2019-03-05T04:20:18.915Z,12.20
2019-03-05T04:22:48.263Z,8.30
2019-03-05T04:25:17.613Z,9.77
2019-03-05T04:27:46.946Z,11.70
2019-03-05T04:30:16.274Z,8.17
2019-03-05T04:32:45.630Z,11.97
2019-03-05T04:35:14.959Z,11.37
2019-03-05T04:37:44.286Z,9.87
2019-03-05T04:40:13.792Z,12.13
2019-03-05T04:42:43.123Z,9.47
2019-03-05T04:45:46.057Z,8.40
2019-03-05T04:48:15.378Z,9.13
2019-03-05T04:50:49.099Z,12.07
2019-03-05T04:53:18.450Z,8.80
2019-03-05T04:55:47.786Z,9.17
2019-03-05T04:58:17.127Z,13.73
2019-03-05T05:00:46.473Z,14.87
2019-03-05T05:03:15.875Z,9.27
2019-03-05T05:05:45.271Z,10.17
2019-03-05T05:08:14.613Z,10.60
2019-03-05T05:10:43.946Z,10.20
2019-03-05T05:13:13.278Z,13.73
2019-03-05T05:15:42.630Z,9.57
2019-03-05T05:18:11.954Z,10.47
2019-03-05T05:20:41.286Z,12.03
2019-03-05T05:23:10.637Z,6.60
2019-03-05T05:25:39.967Z,10.53
2019-03-05T05:28:09.298Z,10.80
2019-03-05T05:30:40.939Z,13.40
2019-03-05T05:33:10.260Z,9.57
2019-03-05T05:35:39.592Z,11.20
2019-03-05T05:38:08.937Z,13.50
2019-03-05T05:40:40.766Z,7.63
2019-03-05T05:43:18.466Z,7.30
2019-03-05T05:45:50.195Z,6.00
2019-03-05T05:48:19.573Z,7.10
2019-03-05T05:50:48.939Z,8.50
2019-03-05T05:53:18.262Z,9.50
2019-03-05T05:55:47.650Z,8.53
2019-03-05T05:58:17.003Z,8.53
2019-03-05T06:00:50.743Z,8.57
2019-03-05T06:03:20.069Z,10.60
2019-03-05T06:05:49.420Z,7.30
2019-03-05T06:08:18.745Z,7.70
2019-03-05T06:10:48.065Z,6.20
2019-03-05T06:13:17.442Z,14.53
2019-03-05T06:15:46.759Z,8.03
2019-03-05T06:18:16.089Z,10.27
2019-03-05T06:20:45.445Z,10.10
2019-03-05T06:23:14.761Z,8.80
2019-03-05T06:25:44.087Z,9.87
2019-03-05T06:28:13.509Z,8.37
2019-03-05T06:30:43.480Z,10.23
2019-03-05T06:33:12.796Z,8.77
2019-03-05T06:35:42.142Z,10.90
2019-03-05T06:38:11.467Z,10.13
2019-03-05T06:40:40.789Z,11.00
2019-03-05T06:43:10.130Z,9.30
2019-03-05T06:45:39.451Z,7.93
2019-03-05T06:48:08.773Z,9.00
2019-03-05T06:50:38.128Z,10.87
2019-03-05T06:53:07.455Z,10.50
2019-03-05T06:55:36.778Z,10.33
2019-03-05T06:58:06.153Z,10.77
2019-03-05T07:00:37.114Z,10.87
2019-03-05T07:03:10.016Z,8.73
2019-03-05T07:06:15.214Z,8.47
2019-03-05T07:09:04.752Z,8.93
2019-03-05T07:11:55.273Z,9.50
2019-03-05T07:14:42.551Z,12.70
2019-03-05T07:17:26.702Z,8.87
2019-03-05T07:20:19.781Z,9.83
2019-03-05T07:23:03.697Z,11.97
2019-03-05T07:25:33.031Z,7.90
2019-03-05T07:28:02.384Z,8.93
2019-03-05T07:30:31.784Z,12.00
2019-03-05T07:33:01.107Z,9.73
2019-03-05T07:35:30.661Z,8.87
2019-03-05T07:38:00.093Z,10.97
2019-03-05T07:40:29.483Z,9.60
2019-03-05T07:42:58.818Z,6.33
2019-03-05T07:45:28.237Z,10.53
2019-03-05T07:47:57.557Z,12.33
2019-03-05T07:50:26.883Z,9.50
2019-03-05T07:52:56.238Z,11.43
2019-03-05T07:55:25.566Z,10.87
2019-03-05T07:57:54.893Z,8.53
2019-03-05T08:00:24.406Z,10.97
2019-03-05T08:02:53.930Z,11.67
2019-03-05T08:05:23.274Z,12.20
2019-03-05T08:07:52.673Z,9.73
2019-03-05T08:10:24.553Z,7.70
2019-03-05T08:13:11.817Z,11.07
2019-03-05T08:15:45.862Z,9.53
2019-03-05T08:18:15.188Z,8.87
2019-03-05T08:20:44.725Z,7.77
2019-03-05T08:23:14.053Z,10.13
2019-03-05T08:25:43.386Z,11.03
2019-03-05T08:28:12.733Z,8.00
2019-03-05T08:30:42.118Z,9.53
2019-03-05T08:33:11.551Z,9.97
2019-03-05T08:35:40.909Z,11.50
2019-03-05T08:38:10.242Z,7.60
2019-03-05T08:40:39.568Z,12.53
2019-03-05T08:43:08.912Z,13.93
2019-03-05T08:45:38.242Z,8.80
2019-03-05T08:48:07.571Z,13.80
2019-03-05T08:50:36.894Z,7.70
2019-03-05T08:53:06.213Z,8.80
2019-03-05T08:55:35.553Z,7.53
2019-03-05T08:58:05.175Z,6.90
2019-03-05T09:00:34.493Z,9.37
2019-03-05T09:03:03.888Z,9.43
2019-03-05T09:05:33.212Z,9.23
2019-03-05T09:08:02.602Z,11.50
2019-03-05T09:10:31.991Z,7.27
2019-03-05T09:13:01.377Z,11.13
2019-03-05T09:15:30.703Z,10.17
2019-03-05T09:18:00.035Z,11.13
2019-03-05T09:20:29.353Z,5.83
2019-03-05T09:22:58.749Z,10.00
2019-03-05T09:25:28.074Z,7.50
2019-03-05T09:27:57.401Z,10.33
2019-03-05T09:30:26.739Z,7.00
2019-03-05T09:32:56.061Z,9.63
2019-03-05T09:35:25.385Z,9.37
2019-03-05T09:37:54.712Z,9.43
2019-03-05T09:40:28.598Z,7.37
2019-03-05T09:42:57.935Z,10.07
2019-03-05T09:45:28.382Z,11.00
2019-03-05T09:47:57.946Z,9.03
2019-03-05T09:50:27.365Z,5.73
2019-03-05T09:52:56.753Z,8.37
2019-03-05T09:55:26.793Z,7.43
2019-03-05T09:58:07.710Z,8.17
2019-03-05T10:00:28.432Z,9.13
2019-03-05T10:02:57.817Z,9.90
2019-03-05T10:05:27.138Z,6.57
2019-03-05T10:07:56.460Z,4.77
2019-03-05T10:10:27.895Z,6.83
2019-03-05T10:12:59.124Z,5.73
2019-03-05T10:15:29.243Z,9.50
2019-03-05T10:17:58.560Z,8.63
2019-03-05T10:20:32.886Z,5.57
2019-03-05T10:23:02.558Z,5.07
2019-03-05T10:25:31.886Z,5.13
2019-03-05T10:28:01.544Z,5.67
2019-03-05T10:30:36.600Z,4.60
2019-03-05T10:33:10.906Z,6.53
2019-03-05T10:35:40.406Z,6.27
2019-03-05T10:38:10.983Z,3.93
2019-03-05T10:40:45.986Z,4.90
2019-03-05T10:43:16.654Z,5.57
2019-03-05T10:45:47.118Z,7.90
2019-03-05T10:48:35.781Z,5.53
2019-03-05T10:51:05.447Z,5.53
2019-03-05T10:53:34.825Z,5.50
2019-03-05T10:56:04.793Z,8.77
2019-03-05T10:58:34.578Z,6.90
2019-03-05T11:01:05.842Z,7.10
2019-03-05T11:03:35.160Z,8.03
2019-03-05T11:06:07.226Z,5.07
2019-03-05T11:08:36.555Z,4.47
2019-03-05T11:11:13.647Z,3.77
2019-03-05T11:13:37.046Z,3.90
2019-03-05T11:16:06.552Z,7.63
2019-03-05T11:18:36.202Z,3.60
2019-03-05T11:21:06.069Z,5.13
2019-03-05T11:23:50.345Z,3.50
2019-03-05T11:26:19.665Z,4.90
2019-03-05T11:28:49.002Z,3.47
2019-03-05T11:31:18.322Z,4.80
2019-03-05T11:33:47.650Z,4.20
2019-03-05T11:36:17.150Z,2.20
2019-03-05T11:38:46.474Z,2.33
2019-03-05T11:41:15.789Z,3.60
2019-03-05T11:43:45.120Z,4.27
2019-03-05T11:46:16.345Z,1.83
2019-03-05T11:48:45.777Z,3.70
2019-03-05T11:51:15.111Z,2.40
2019-03-05T11:53:44.430Z,2.97
2019-03-05T11:56:13.744Z,2.57
2019-03-05T11:58:43.098Z,2.37
2019-03-05T12:01:14.061Z,2.83
2019-03-05T12:03:43.377Z,4.43
2019-03-05T12:06:12.701Z,5.63
2019-03-05T12:08:42.029Z,3.10
2019-03-05T12:11:11.357Z,3.70
2019-03-05T12:13:40.683Z,3.60
2019-03-05T12:16:10.355Z,5.33
2019-03-05T12:18:39.670Z,3.97
2019-03-05T12:21:09.332Z,3.90
2019-03-05T12:23:38.650Z,2.53
2019-03-05T12:26:07.970Z,3.37
2019-03-05T12:28:37.338Z,5.33
2019-03-05T12:31:06.698Z,4.73
2019-03-05T12:33:36.018Z,3.30
2019-03-05T12:36:05.346Z,7.37
2019-03-05T12:38:34.661Z,3.30
2019-03-05T12:41:04.052Z,2.87
2019-03-05T12:43:33.389Z,4.13
2019-03-05T12:46:02.715Z,4.97
2019-03-05T12:48:40.019Z,3.23
2019-03-05T12:51:03.382Z,7.37
2019-03-05T12:53:32.713Z,6.10
2019-03-05T12:56:02.044Z,3.60
2019-03-05T12:58:31.378Z,6.37
2019-03-05T13:01:00.764Z,5.73
2019-03-05T13:03:30.081Z,3.47
2019-03-05T13:05:59.406Z,5.17
2019-03-05T13:08:28.869Z,5.53
2019-03-05T13:10:58.238Z,5.43
2019-03-05T13:13:27.567Z,3.73
2019-03-05T13:15:57.523Z,3.53
2019-03-05T13:18:31.098Z,2.23
2019-03-05T13:20:58.142Z,3.83
2019-03-05T13:23:27.465Z,1.83
2019-03-05T13:25:56.809Z,2.23
2019-03-05T13:28:26.121Z,2.27
2019-03-05T13:30:55.451Z,1.97
2019-03-05T13:33:24.769Z,1.83
2019-03-05T13:35:54.085Z,1.40
2019-03-05T13:38:23.406Z,1.00
2019-03-05T13:40:52.723Z,1.10
2019-03-05T13:43:22.041Z,2.10
2019-03-05T13:45:51.367Z,2.00
2019-03-05T13:48:35.461Z,4.30
2019-03-05T13:51:07.869Z,5.27
2019-03-05T13:54:01.004Z,2.97
2019-03-05T13:56:37.860Z,5.77
2019-03-05T13:59:37.003Z,4.97
2019-03-05T14:02:07.760Z,7.63
2019-03-05T14:04:45.126Z,5.27
2019-03-05T14:07:29.689Z,6.00
2019-03-05T14:09:59.091Z,9.03
2019-03-05T14:12:28.401Z,6.93
2019-03-05T14:14:57.895Z,5.60
2019-03-05T14:17:27.350Z,4.40
2019-03-05T14:19:56.665Z,6.67
2019-03-05T14:22:25.999Z,6.73
2019-03-05T14:25:02.068Z,17.40
2019-03-05T14:27:26.346Z,6.87
2019-03-05T14:29:55.681Z,6.23
2019-03-05T14:32:25.265Z,4.57
2019-03-05T14:34:57.927Z,7.67
2019-03-05T14:37:28.753Z,7.73
2019-03-05T14:40:18.695Z,10.37
2019-03-05T14:42:29.706Z,7.33
2019-03-05T14:44:59.021Z,11.27
2019-03-05T14:47:28.351Z,6.07
2019-03-05T14:49:57.661Z,8.07
2019-03-05T14:52:26.982Z,5.17
2019-03-05T14:54:56.329Z,6.70
2019-03-05T14:57:25.648Z,6.90
2019-03-05T14:59:54.955Z,7.27
2019-03-05T15:02:24.303Z,5.83
2019-03-05T15:04:53.654Z,5.43
2019-03-05T15:07:23.044Z,4.33
2019-03-05T15:09:52.620Z,9.30
2019-03-05T15:12:22.078Z,8.87
2019-03-05T15:14:51.391Z,7.03
2019-03-05T15:17:20.745Z,8.10
2019-03-05T15:19:50.213Z,7.23
2019-03-05T15:22:19.519Z,9.50
2019-03-05T15:24:48.880Z,6.40
2019-03-05T15:27:18.262Z,5.60
2019-03-05T15:29:47.689Z,7.20
2019-03-05T15:32:17.048Z,6.50
2019-03-05T15:34:46.421Z,6.27
2019-03-05T15:37:15.825Z,11.37
2019-03-05T15:39:45.227Z,8.00
2019-03-05T15:42:14.637Z,12.57
2019-03-05T15:44:44.100Z,5.70
2019-03-05T15:47:13.413Z,9.53
2019-03-05T15:49:42.764Z,8.87
2019-03-05T15:52:12.066Z,6.77
2019-03-05T15:54:41.507Z,9.97
2019-03-05T15:57:10.839Z,5.97
2019-03-05T15:59:40.280Z,11.53
2019-03-05T16:02:09.654Z,11.10
2019-03-05T16:04:39.687Z,12.77
2019-03-05T16:07:10.869Z,9.63
2019-03-05T16:09:43.729Z,11.37
2019-03-05T16:12:12.063Z,9.57
2019-03-05T16:14:41.382Z,6.23
2019-03-05T16:17:10.720Z,12.10
2019-03-05T16:19:40.042Z,11.73
2019-03-05T16:22:09.373Z,12.33
2019-03-05T16:24:58.052Z,12.53
2019-03-05T16:27:29.982Z,8.50
2019-03-05T16:29:58.402Z,12.13
2019-03-05T16:35:37.160Z,10.43
2019-03-05T16:38:08.117Z,10.27
2019-03-05T16:40:55.641Z,13.13
2019-03-05T16:43:35.213Z,15.97
2019-03-05T16:46:22.990Z,13.33
2019-03-05T16:49:10.609Z,8.63
2019-03-05T16:51:59.611Z,10.87
2019-03-05T16:54:46.540Z,10.17
2019-03-05T16:57:23.094Z,9.67
2019-03-05T17:00:02.756Z,10.87
2019-03-05T17:02:42.451Z,20.63
2019-03-05T17:05:22.514Z,9.50
2019-03-05T17:07:53.623Z,17.47
2019-03-05T17:10:30.466Z,11.00
2019-03-05T17:12:59.858Z,16.07
2019-03-05T17:15:29.195Z,13.63
2019-03-05T17:17:58.542Z,15.03
2019-03-05T17:20:27.893Z,10.97
2019-03-05T17:22:57.281Z,9.40
2019-03-05T17:25:26.793Z,11.80
2019-03-05T17:27:56.130Z,9.87
2019-03-05T17:30:25.448Z,9.70
2019-03-05T17:32:54.781Z,13.87
2019-03-05T17:35:24.110Z,20.10
2019-03-05T17:37:53.438Z,12.17
2019-03-05T17:40:22.801Z,17.07
2019-03-05T17:42:52.126Z,13.53
2019-03-05T17:45:23.396Z,9.57
2019-03-05T17:47:53.093Z,12.03
2019-03-05T17:50:22.489Z,10.90
2019-03-05T17:52:51.899Z,9.57
2019-03-05T17:55:27.077Z,10.70
2019-03-05T17:57:55.329Z,20.83
2019-03-05T18:00:26.534Z,8.87
2019-03-05T18:02:55.927Z,8.27
2019-03-05T18:05:25.335Z,10.90
2019-03-05T18:07:54.670Z,14.87
2019-03-05T18:10:24.375Z,13.67
2019-03-05T18:12:53.776Z,10.50
2019-03-05T18:15:23.282Z,8.17
2019-03-05T18:17:52.792Z,7.70
2019-03-05T18:20:22.990Z,12.20
2019-03-05T18:22:57.393Z,12.77
2019-03-05T18:25:26.952Z,9.47
2019-03-05T18:27:56.499Z,8.97
2019-03-05T18:30:27.134Z,7.87
2019-03-05T18:32:56.795Z,7.37
2019-03-05T18:35:26.209Z,11.10
2019-03-05T18:37:55.606Z,11.87
2019-03-05T18:40:26.063Z,9.03
2019-03-05T18:42:55.558Z,10.77
2019-03-05T18:45:40.367Z,9.37
2019-03-05T18:48:09.743Z,13.33
2019-03-05T18:50:39.210Z,13.37
2019-03-05T18:53:08.558Z,11.67
2019-03-05T18:55:37.897Z,13.53
2019-03-05T18:58:07.222Z,7.87
2019-03-05T19:00:38.173Z,10.60
2019-03-05T19:03:15.527Z,11.43
2019-03-05T19:05:44.940Z,15.27
2019-03-05T19:08:14.274Z,10.27
2019-03-05T19:10:43.603Z,13.50
2019-03-05T19:13:13.021Z,10.50
2019-03-05T19:15:42.376Z,9.53
2019-03-05T19:18:11.809Z,4.53
2019-03-05T19:20:41.154Z,8.27
2019-03-05T19:23:10.477Z,9.17
2019-03-05T19:25:41.465Z,9.03
2019-03-05T19:28:11.567Z,8.27
2019-03-05T19:30:46.781Z,11.07
2019-03-05T19:33:16.106Z,12.03
2019-03-05T19:35:45.430Z,7.77
2019-03-05T19:38:14.835Z,10.87
2019-03-05T19:40:45.431Z,10.37
2019-03-05T19:43:14.807Z,8.10
2019-03-05T19:45:44.240Z,11.77
2019-03-05T19:48:13.607Z,8.57
2019-03-05T19:50:43.250Z,8.43
2019-03-05T19:53:12.574Z,6.67
2019-03-05T19:55:41.983Z,7.37
2019-03-05T19:58:12.118Z,13.40
2019-03-05T20:00:55.891Z,8.40
2019-03-05T20:03:25.729Z,13.20
2019-03-05T20:05:55.145Z,14.83
2019-03-05T20:08:42.179Z,21.87
2019-03-05T20:11:11.638Z,32.53
2019-03-05T20:13:41.060Z,26.30
2019-03-05T20:16:10.693Z,15.33
2019-03-05T20:18:40.154Z,6.73
2019-03-05T20:21:09.937Z,10.77
2019-03-05T20:23:44.226Z,10.33
2019-03-05T20:26:13.594Z,12.07
2019-03-05T20:28:42.926Z,21.17
2019-03-05T20:31:12.335Z,30.10
2019-03-05T20:33:41.662Z,17.60
2019-03-05T20:36:10.986Z,13.07
2019-03-05T20:38:40.381Z,8.47
2019-03-05T20:41:09.719Z,14.83
2019-03-05T20:43:39.061Z,17.47
2019-03-05T20:46:11.488Z,14.60
2019-03-05T20:48:40.806Z,10.87
2019-03-05T20:51:10.142Z,13.03
2019-03-05T20:53:39.482Z,13.27
2019-03-05T20:56:08.820Z,20.40
2019-03-05T20:58:38.146Z,18.33
2019-03-05T21:01:09.124Z,28.77
2019-03-05T21:03:38.453Z,37.53
2019-03-05T21:06:07.869Z,27.03
2019-03-05T21:08:37.589Z,10.77
2019-03-05T21:11:06.958Z,11.00
2019-03-05T21:13:36.320Z,12.50
2019-03-05T21:16:05.811Z,11.73
2019-03-05T21:18:35.308Z,8.07
2019-03-05T21:21:04.816Z,7.07
2019-03-05T21:23:34.138Z,9.60
2019-03-05T21:26:03.557Z,9.47
2019-03-05T21:28:32.970Z,10.30
2019-03-05T21:31:02.331Z,11.80
2019-03-05T21:33:31.746Z,14.17
2019-03-05T21:36:01.055Z,12.03
2019-03-05T21:38:30.400Z,14.70
2019-03-05T21:40:59.721Z,9.43
2019-03-05T21:43:29.050Z,9.87
2019-03-05T21:46:01.464Z,11.73
2019-03-05T21:48:30.769Z,7.67
2019-03-05T21:51:00.105Z,12.97
2019-03-05T21:53:29.429Z,9.13
2019-03-05T21:55:58.933Z,8.97
2019-03-05T21:58:28.264Z,10.20
2019-03-05T22:00:57.600Z,10.10
2019-03-05T22:03:26.923Z,9.57
2019-03-05T22:05:56.246Z,10.50
2019-03-05T22:08:25.576Z,9.17
2019-03-05T22:10:54.903Z,9.43
2019-03-05T22:13:24.218Z,8.93
2019-03-05T22:15:53.542Z,7.90
2019-03-05T22:18:22.866Z,10.90
2019-03-05T22:20:52.202Z,8.63
2019-03-05T22:23:21.519Z,7.70
2019-03-05T22:25:50.846Z,10.97
2019-03-05T22:28:20.177Z,14.83
2019-03-05T22:30:49.503Z,13.60
2019-03-05T22:33:18.822Z,11.93
2019-03-05T22:35:48.150Z,13.00
2019-03-05T22:38:17.487Z,11.17
2019-03-05T22:40:46.822Z,12.47
2019-03-05T22:43:16.431Z,22.47
2019-03-05T22:45:45.767Z,23.23
2019-03-05T22:48:15.100Z,30.17
2019-03-05T22:50:44.445Z,21.47
2019-03-05T22:53:13.769Z,20.83
2019-03-05T22:55:43.381Z,29.37
2019-03-05T22:58:12.730Z,24.80
2019-03-05T23:00:55.798Z,26.87
2019-03-05T23:03:27.568Z,44.40
2019-03-05T23:05:57.061Z,51.07
2019-03-05T23:08:26.402Z,55.80
2019-03-05T23:10:55.793Z,47.40
2019-03-05T23:13:25.300Z,33.77
2019-03-05T23:15:54.811Z,27.47
2019-03-05T23:18:24.278Z,17.70
2019-03-05T23:20:53.602Z,15.90
2019-03-05T23:23:22.926Z,10.03
2019-03-05T23:25:52.317Z,11.30
2019-03-05T23:28:22.098Z,12.57
2019-03-05T23:30:51.489Z,34.80
2019-03-05T23:33:21.063Z,21.80
2019-03-05T23:35:50.416Z,47.13
2019-03-05T23:38:19.737Z,26.30
2019-03-05T23:40:49.345Z,17.83
2019-03-05T23:43:18.736Z,17.10
2019-03-05T23:45:48.065Z,13.40
2019-03-05T23:48:17.402Z,16.37
2019-03-05T23:50:46.735Z,15.10
2019-03-05T23:53:16.334Z,14.93
2019-03-05T23:55:45.670Z,11.90
2019-03-05T23:58:15.067Z,11.77
